UACCLTFE

Guest
Details From UACC - Astana Intl
To LTFE - Milas Bodrum
Flight Number -
Tags Generated
Created
Modified
Stats Distance 2,024 nm / 3,749 km
Max Altitude 0 ft / 0 m
Waypoints 7
Social Downloads 0
Likes 0
Share VATSIM

Download

Looking for another format? Having issues loading an existing format? Contact us
Advertisement - Login to hide

Notes

Generated

Route

UACC KUSOT MANAD LINOK BAFRA R2281 LTFE

ID Type Via Altitude Latitude Longitude Leg Dist Tot Dist Heading (true) Name
O UACC APT - 0 ft / 0 m 51.01097˚ 71.44957˚ - 0 nm - -
KUSOT FIX - 0 ft / 0 m 50.35778˚ 65.85278˚ 216 nm 216 nm 262° / 257° -
MANAD FIX - 0 ft / 0 m 49.34694˚ 60.41444˚ 219 nm 435 nm 256° / 252° -
LINOK FIX - 0 ft / 0 m 43.39333˚ 40.00000˚ 914 nm 1350 nm 255° / 240° -
BAFRA FIX - 0 ft / 0 m 41.50861˚ 35.96639˚ 211 nm 1561 nm 239° / 236° -
R2281 FIX - 0 ft / 0 m 37.25497˚ 27.64921˚ 462 nm 2024 nm 239° / 234° -
O LTFE APT - 0 ft / 0 m 37.25497˚ 27.64921˚ 0 nm 2024 nm 0° / 180° -

Altitude Profile

Advertisement - Login to hide

Weather


0- 5 10 15 20 25 30 35+ Temperature / ° C

Clouds and Precipitation
Forecast for 2017-12-16 12:00 UTC. Updated 6 minutes ago

Ground ~20,000 ft ~40,000 ft Winds

UACC

Details ICAO UACC (TSE)
Name Astana INTL
Region Kazakhstan and Kyrgyzstan
Timezone Asia/Almaty (UTC+6.0)
Stats Elevation 1,165 ft / 355 m (AMSL)
Location 51.022180° 71.467062°
Runways 1
Magnetic Variation 9.843° E

METAR

UACC 161100Z 07005MPS CAVOK M13/M18 Q1039 R04/85//60 NOSIG RMK QFE747/0996

Decode

TAF

TAF UACC 160500Z 1606/1706 08005MPS 9999 NSC TXM11/1609Z TNM24/1701Z TEMPO 1617/1704 3000 BR SCT006

Decode

Departure Runways

ID Width Length Bearing (true) Bearing (mag) Surface Threshold Offset Overrun Length
04 148 ft / 45 m 11,467 ft / 3,495 m 44.45° 34.61° Asphalt 0 ft / 0 m 0 ft / 0 m
22 148 ft / 45 m 11,467 ft / 3,495 m 224.48° 214.64° Asphalt 0 ft / 0 m 0 ft / 0 m

LTFE

Details ICAO LTFE (BJV)
Name MILAS BODRUM
Region Turkey
Timezone Europe/Istanbul (UTC+3.0)
Stats Elevation 21 ft / 6 m (AMSL)
Location 37.251115° 27.665350°
Runways 1
Magnetic Variation 4.832° E

METAR

LTFE 161050Z 16014KT 9999 FEW035 SCT100 BKN200 20/10 Q1017 NOSIG

Decode

TAF

Not found

Destination Runways

ID Width Length Bearing (true) Bearing (mag) Surface Threshold Offset Overrun Length
11 148 ft / 45 m 9,786 ft / 2,983 m 106.68° 101.85° Concrete 0 ft / 0 m 208 ft / 63 m
29 148 ft / 45 m 9,786 ft / 2,983 m 286.70° 281.87° Concrete 0 ft / 0 m 201 ft / 61 m

Approach Navaids

Runway Type Ident Frequency Range Bearing (true) Bearing (mag) Slope Elevation
11 Localiser IBDR 109.30 MHz 18 nm / 33 km 106.64° 101.81° - 21 ft / 6 m (AMSL)
11 Glidescope IBDR 109.30 MHz 10 nm / 19 km 106.69° 101.86° 3.30° 21 ft / 6 m (AMSL)
29 Localiser IGML 109.10 MHz 18 nm / 33 km 286.68° 281.85° - 21 ft / 6 m (AMSL)
29 Glidescope IGML 109.10 MHz 10 nm / 19 km 286.69° 281.86° 3.90° 21 ft / 6 m (AMSL)